createdAt,value
2023-11-18T00:00:14.962Z,7.80
2023-11-18T00:02:39.098Z,7.80
2023-11-18T00:05:02.921Z,7.80
2023-11-18T00:07:26.939Z,7.80
2023-11-18T00:09:50.749Z,7.80
2023-11-18T00:12:15.362Z,7.80
2023-11-18T00:14:41.824Z,7.80
2023-11-18T00:17:06.123Z,7.80
2023-11-18T00:19:29.940Z,7.80
2023-11-18T00:21:54.688Z,7.80
2023-11-18T00:24:18.568Z,7.80
2023-11-18T00:26:42.487Z,7.80
2023-11-18T00:29:06.680Z,7.80
2023-11-18T00:31:32.077Z,7.80
2023-11-18T00:33:56.039Z,7.70
2023-11-18T00:36:19.774Z,7.80
2023-11-18T00:38:43.635Z,7.70
2023-11-18T00:41:09.130Z,7.70
2023-11-18T00:43:33.061Z,7.70
2023-11-18T00:45:58.858Z,7.70
2023-11-18T00:48:24.262Z,7.70
2023-11-18T00:50:49.073Z,7.70
2023-11-18T00:53:13.295Z,7.60
2023-11-18T00:55:37.231Z,7.60
2023-11-18T00:58:01.150Z,7.60
2023-11-18T01:00:27.565Z,7.60
2023-11-18T01:02:52.470Z,7.50
2023-11-18T01:05:17.972Z,7.50
2023-11-18T01:07:42.563Z,7.50
2023-11-18T01:10:07.802Z,7.50
2023-11-18T01:12:31.718Z,7.40
2023-11-18T01:14:55.583Z,7.40
2023-11-18T01:17:19.521Z,7.40
2023-11-18T01:19:43.369Z,7.40
2023-11-18T01:22:09.759Z,7.50
2023-11-18T01:24:33.907Z,7.50
2023-11-18T01:26:57.665Z,7.50
2023-11-18T01:29:23.469Z,7.50
2023-11-18T01:31:52.431Z,7.50
2023-11-18T01:34:18.202Z,7.50
2023-11-18T01:36:42.009Z,7.50
2023-11-18T01:39:08.368Z,7.50
2023-11-18T01:41:34.381Z,7.50
2023-11-18T01:43:58.391Z,7.50
2023-11-18T01:46:24.668Z,7.50
2023-11-18T01:48:49.420Z,7.50
2023-11-18T01:51:13.616Z,7.50
2023-11-18T01:53:39.702Z,7.50
2023-11-18T01:56:06.927Z,7.50
2023-11-18T01:58:32.345Z,7.50
2023-11-18T02:00:56.826Z,7.50
2023-11-18T02:03:21.671Z,7.50
2023-11-18T02:05:45.712Z,7.50
2023-11-18T02:08:09.694Z,7.50
2023-11-18T02:10:34.332Z,7.50
2023-11-18T02:13:07.233Z,7.50
2023-11-18T02:15:33.141Z,7.50
2023-11-18T02:17:59.507Z,7.50
2023-11-18T02:20:25.023Z,7.60
2023-11-18T02:22:49.903Z,7.50
2023-11-18T02:25:19.282Z,7.60
2023-11-18T02:27:45.264Z,7.60
2023-11-18T02:30:14.273Z,7.60
2023-11-18T02:32:46.266Z,7.60
2023-11-18T02:35:15.245Z,7.60
2023-11-18T02:37:43.396Z,7.60
2023-11-18T02:40:12.987Z,7.60
2023-11-18T02:42:38.971Z,7.60
2023-11-18T02:45:04.943Z,7.60
2023-11-18T02:47:28.389Z,7.60
2023-11-18T02:49:57.327Z,7.60
2023-11-18T02:52:21.228Z,7.50
2023-11-18T02:54:46.012Z,7.40
2023-11-18T02:57:10.204Z,7.40
2023-11-18T02:59:34.097Z,7.30
2023-11-18T03:01:59.429Z,7.20
2023-11-18T03:04:25.132Z,7.10
2023-11-18T03:06:48.874Z,7.10
2023-11-18T03:09:14.915Z,7.00
2023-11-18T03:11:38.873Z,7.00
2023-11-18T03:14:01.767Z,7.00
2023-11-18T03:16:26.956Z,6.90
2023-11-18T03:18:52.418Z,6.90
2023-11-18T03:21:16.689Z,6.90
2023-11-18T03:23:41.945Z,6.90
2023-11-18T03:26:06.858Z,6.90
2023-11-18T03:28:30.713Z,7.00
2023-11-18T03:30:55.129Z,7.00
2023-11-18T03:33:20.269Z,7.10
2023-11-18T03:35:45.667Z,7.10
2023-11-18T03:38:09.452Z,7.10
2023-11-18T03:40:34.077Z,7.20
2023-11-18T03:42:59.810Z,7.20
2023-11-18T03:45:24.240Z,7.20
2023-11-18T03:47:48.927Z,7.20
2023-11-18T03:50:14.692Z,7.20
2023-11-18T03:52:40.235Z,7.20
2023-11-18T03:55:05.771Z,7.30
2023-11-18T03:57:30.549Z,7.20
2023-11-18T03:59:55.199Z,7.20
2023-11-18T04:02:19.129Z,7.20
2023-11-18T04:04:43.254Z,7.20
2023-11-18T04:07:07.689Z,7.20
2023-11-18T04:09:32.948Z,7.20
2023-11-18T04:11:56.892Z,7.20
2023-11-18T04:14:22.603Z,7.20
2023-11-18T04:16:47.775Z,7.20
2023-11-18T04:19:11.692Z,7.20
2023-11-18T04:21:35.773Z,7.30
2023-11-18T04:23:59.936Z,7.30
2023-11-18T04:26:25.715Z,7.30
2023-11-18T04:28:50.658Z,7.30
2023-11-18T04:31:15.383Z,7.30
2023-11-18T04:33:41.404Z,7.30
2023-11-18T04:36:06.699Z,7.30
2023-11-18T04:38:31.024Z,7.30
2023-11-18T04:40:55.552Z,7.30
2023-11-18T04:43:28.014Z,7.40
2023-11-18T04:45:55.900Z,7.40
2023-11-18T04:48:22.606Z,7.30
2023-11-18T04:50:46.805Z,7.30
2023-11-18T04:53:12.097Z,7.30
2023-11-18T04:55:36.249Z,7.30
2023-11-18T04:58:00.116Z,7.30
2023-11-18T05:00:25.984Z,7.30
2023-11-18T05:02:50.696Z,7.30
2023-11-18T05:05:15.994Z,7.30
2023-11-18T05:07:40.000Z,7.30
2023-11-18T05:10:05.285Z,7.30
2023-11-18T05:12:30.740Z,7.30
2023-11-18T05:14:56.151Z,7.30
2023-11-18T05:17:21.653Z,7.30
2023-11-18T05:19:45.581Z,7.30
2023-11-18T05:22:09.348Z,7.30
2023-11-18T05:24:33.261Z,7.30
2023-11-18T05:26:57.055Z,7.30
2023-11-18T05:29:22.179Z,7.30
2023-11-18T05:31:46.618Z,7.30
2023-11-18T05:34:13.714Z,7.30
2023-11-18T05:36:38.949Z,7.30
2023-11-18T05:39:03.006Z,7.30
2023-11-18T05:41:31.832Z,7.20
2023-11-18T05:43:58.009Z,7.20
2023-11-18T05:46:24.009Z,7.20
2023-11-18T05:48:49.637Z,7.20
2023-11-18T05:51:15.305Z,7.20
2023-11-18T05:53:43.155Z,7.20
2023-11-18T05:56:08.343Z,7.30
2023-11-18T05:58:32.476Z,7.20
2023-11-18T06:00:56.394Z,7.20
2023-11-18T06:03:21.258Z,7.20
2023-11-18T06:05:44.611Z,7.20
2023-11-18T06:08:10.308Z,7.30
2023-11-18T06:10:34.291Z,7.30
2023-11-18T06:12:59.435Z,7.30
2023-11-18T06:15:23.946Z,7.30
2023-11-18T06:17:48.097Z,7.30
2023-11-18T06:20:15.375Z,7.30
2023-11-18T06:22:39.797Z,7.30
2023-11-18T06:25:08.734Z,7.40
2023-11-18T06:27:33.357Z,7.50
2023-11-18T06:29:57.154Z,7.40
2023-11-18T06:32:21.575Z,7.50
2023-11-18T06:34:45.611Z,7.50
2023-11-18T06:37:09.582Z,7.60
2023-11-18T06:39:36.191Z,7.60
2023-11-18T06:42:02.550Z,7.60
2023-11-18T06:44:26.321Z,7.70
2023-11-18T06:46:52.193Z,7.70
2023-11-18T06:49:17.496Z,7.70
2023-11-18T06:51:41.439Z,7.70
2023-11-18T06:54:10.393Z,7.80
2023-11-18T06:56:36.318Z,7.80
2023-11-18T06:59:01.793Z,7.80
2023-11-18T07:01:25.710Z,7.80
2023-11-18T07:03:54.150Z,7.80
2023-11-18T07:06:23.651Z,7.90
2023-11-18T07:08:50.260Z,7.90
2023-11-18T07:11:14.146Z,7.90
2023-11-18T07:13:40.075Z,7.90
2023-11-18T07:16:06.745Z,7.90
2023-11-18T07:18:34.851Z,8.00
2023-11-18T07:21:01.014Z,7.90
2023-11-18T07:23:24.983Z,8.00
2023-11-18T07:25:49.239Z,8.00
2023-11-18T07:28:16.181Z,8.00
2023-11-18T07:30:40.098Z,8.00
2023-11-18T07:33:06.681Z,8.00
2023-11-18T07:35:31.303Z,8.00
2023-11-18T07:37:55.461Z,8.00
2023-11-18T07:40:29.463Z,8.00
2023-11-18T07:42:56.839Z,8.10
2023-11-18T07:45:20.866Z,8.10
2023-11-18T07:47:44.643Z,8.20
2023-11-18T07:50:13.730Z,8.20
2023-11-18T07:52:37.646Z,8.30
2023-11-18T07:55:01.628Z,8.40
2023-11-18T07:57:26.222Z,8.40
2023-11-18T07:59:49.974Z,8.50
2023-11-18T08:02:15.935Z,8.50
2023-11-18T08:04:39.764Z,8.50
2023-11-18T08:07:06.516Z,8.60
2023-11-18T08:09:32.610Z,8.60
2023-11-18T08:11:56.767Z,8.60
2023-11-18T08:14:21.266Z,8.60
2023-11-18T08:16:45.230Z,8.60
2023-11-18T08:19:10.049Z,8.60
2023-11-18T08:21:34.512Z,8.60
2023-11-18T08:24:01.415Z,8.70
2023-11-18T08:26:25.393Z,8.60
2023-11-18T08:28:49.377Z,8.50
2023-11-18T08:31:17.094Z,8.50
2023-11-18T08:33:41.057Z,8.50
2023-11-18T08:36:05.110Z,8.40
2023-11-18T08:38:29.230Z,8.50
2023-11-18T08:40:54.537Z,8.50
2023-11-18T08:43:18.730Z,8.40
2023-11-18T08:45:42.858Z,8.40
2023-11-18T08:48:09.512Z,8.50
2023-11-18T08:50:34.554Z,8.50
2023-11-18T08:53:00.416Z,8.50
2023-11-18T08:55:27.173Z,8.50
2023-11-18T08:58:05.224Z,8.50
2023-11-18T09:00:47.893Z,8.60
2023-11-18T09:03:18.884Z,8.60
2023-11-18T09:05:44.135Z,8.60
2023-11-18T09:08:08.173Z,8.70
2023-11-18T09:10:32.164Z,8.80
2023-11-18T09:12:58.527Z,8.80
2023-11-18T09:15:23.854Z,8.80
2023-11-18T09:17:48.640Z,8.90
2023-11-18T09:20:13.247Z,8.90
2023-11-18T09:22:37.320Z,8.90
2023-11-18T09:25:01.250Z,9.00
2023-11-18T09:27:25.255Z,9.00
2023-11-18T09:29:50.808Z,9.10
2023-11-18T09:32:16.173Z,9.10
2023-11-18T09:34:42.431Z,9.10
2023-11-18T09:37:06.480Z,9.10
2023-11-18T09:39:39.297Z,9.10
2023-11-18T09:42:04.330Z,9.20
2023-11-18T09:44:29.433Z,9.10
2023-11-18T09:47:05.638Z,9.10
2023-11-18T09:49:35.290Z,9.10
2023-11-18T09:52:01.479Z,9.10
2023-11-18T09:54:31.407Z,9.10
2023-11-18T09:57:10.124Z,9.10
2023-11-18T09:59:36.563Z,9.00
2023-11-18T10:02:03.054Z,9.00
2023-11-18T10:04:29.085Z,9.00
2023-11-18T10:06:54.924Z,9.00
2023-11-18T10:09:20.536Z,9.00
2023-11-18T10:11:49.301Z,9.00
2023-11-18T10:14:16.975Z,9.10
2023-11-18T10:16:41.006Z,9.10
2023-11-18T10:19:09.934Z,9.10
2023-11-18T10:21:40.931Z,9.10
2023-11-18T10:24:06.561Z,9.10
2023-11-18T10:26:32.443Z,9.10
2023-11-18T10:28:56.506Z,9.20
2023-11-18T10:31:21.961Z,9.20
2023-11-18T10:33:46.011Z,9.10
2023-11-18T10:36:23.827Z,9.20
2023-11-18T10:38:52.557Z,9.20
2023-11-18T10:41:18.055Z,9.10
2023-11-18T10:43:43.391Z,9.10
2023-11-18T10:46:13.330Z,9.10
2023-11-18T10:48:37.403Z,9.00
2023-11-18T10:51:02.066Z,9.00
2023-11-18T10:53:29.468Z,9.10
2023-11-18T10:55:53.528Z,9.10
2023-11-18T10:58:19.126Z,9.20
2023-11-18T11:00:51.106Z,9.20
2023-11-18T11:03:15.721Z,9.30
2023-11-18T11:05:42.770Z,9.30
2023-11-18T11:08:08.546Z,9.40
2023-11-18T11:10:33.873Z,9.30
2023-11-18T11:13:03.377Z,9.40
2023-11-18T11:15:44.537Z,9.50
2023-11-18T11:18:29.380Z,9.60
2023-11-18T11:21:05.444Z,9.60
2023-11-18T11:23:44.882Z,9.20
2023-11-18T11:26:21.319Z,9.00
2023-11-18T11:28:55.942Z,8.70
2023-11-18T11:31:25.366Z,8.50
2023-11-18T11:34:00.037Z,8.40
2023-11-18T11:36:28.712Z,8.30
2023-11-18T11:38:57.613Z,8.30
2023-11-18T11:41:28.068Z,8.30
2023-11-18T11:43:56.431Z,8.20
2023-11-18T11:46:24.664Z,8.10
2023-11-18T11:48:49.659Z,8.20
2023-11-18T11:51:27.609Z,8.20
2023-11-18T11:53:57.924Z,8.20
2023-11-18T11:56:39.827Z,8.20
2023-11-18T11:59:04.197Z,8.20
2023-11-18T12:01:34.839Z,8.20
2023-11-18T12:04:08.064Z,8.30
2023-11-18T12:06:33.942Z,8.20
2023-11-18T12:08:59.671Z,8.30
2023-11-18T12:11:25.064Z,8.20
2023-11-18T12:14:10.898Z,8.30
2023-11-18T12:17:09.185Z,8.30
2023-11-18T12:19:38.439Z,8.30
2023-11-18T12:22:09.361Z,8.20
2023-11-18T12:24:34.932Z,8.20
2023-11-18T12:27:04.174Z,8.20
2023-11-18T12:29:35.268Z,8.20
2023-11-18T12:32:00.129Z,8.10
2023-11-18T12:34:24.429Z,8.10
2023-11-18T12:37:28.938Z,8.10
2023-11-18T12:40:20.648Z,8.10
2023-11-18T12:43:14.635Z,8.00
2023-11-18T12:46:21.502Z,8.10
2023-11-18T12:48:47.756Z,8.10
2023-11-18T12:51:20.488Z,8.00
2023-11-18T12:53:44.470Z,8.00
2023-11-18T12:56:09.027Z,8.00
2023-11-18T12:58:34.944Z,7.90
2023-11-18T13:01:00.971Z,7.80
2023-11-18T13:03:24.937Z,7.80
2023-11-18T13:05:49.924Z,7.70
2023-11-18T13:08:18.979Z,7.60
2023-11-18T13:10:42.900Z,7.60
2023-11-18T13:13:10.059Z,7.70
2023-11-18T13:15:35.573Z,7.60
2023-11-18T13:18:01.297Z,7.70
2023-11-18T13:20:27.406Z,7.60
2023-11-18T13:22:51.403Z,7.60
2023-11-18T13:25:16.079Z,7.60
2023-11-18T13:27:40.189Z,7.60
2023-11-18T13:30:06.357Z,7.60
2023-11-18T13:32:31.932Z,7.50
2023-11-18T13:34:56.225Z,7.50
2023-11-18T13:37:23.711Z,7.50
2023-11-18T13:39:50.697Z,7.50
2023-11-18T13:42:22.895Z,7.40
2023-11-18T13:44:47.397Z,7.40
2023-11-18T13:47:13.193Z,7.30
2023-11-18T13:49:41.290Z,7.30
2023-11-18T13:52:08.297Z,7.30
2023-11-18T13:54:32.741Z,7.20
2023-11-18T13:56:59.085Z,7.20
2023-11-18T13:59:23.060Z,7.20
2023-11-18T14:01:47.320Z,7.10
2023-11-18T14:04:12.603Z,7.10
2023-11-18T14:06:38.207Z,7.10
2023-11-18T14:09:02.074Z,7.10
2023-11-18T14:11:26.617Z,7.00
2023-11-18T14:13:50.585Z,7.00
2023-11-18T14:16:18.144Z,7.00
2023-11-18T14:18:43.300Z,7.00
2023-11-18T14:21:08.095Z,7.00
2023-11-18T14:23:33.536Z,7.00
2023-11-18T14:25:57.429Z,7.00
2023-11-18T14:28:26.275Z,6.90
2023-11-18T14:30:50.108Z,6.90
2023-11-18T14:33:14.149Z,6.90
2023-11-18T14:35:41.392Z,6.90
2023-11-18T14:38:06.406Z,6.80
2023-11-18T14:40:33.614Z,6.80
2023-11-18T14:42:58.166Z,6.90
2023-11-18T14:45:27.593Z,6.80
2023-11-18T14:47:54.262Z,6.60
2023-11-18T14:50:22.502Z,6.60
2023-11-18T14:52:50.373Z,6.60
2023-11-18T14:55:23.206Z,6.50
2023-11-18T14:57:48.512Z,6.50
2023-11-18T15:00:20.229Z,6.40
2023-11-18T15:02:44.281Z,6.40
2023-11-18T15:05:10.837Z,6.30
2023-11-18T15:07:34.834Z,6.20
2023-11-18T15:10:02.172Z,6.10
2023-11-18T15:12:28.465Z,6.00
2023-11-18T15:14:56.728Z,6.00
2023-11-18T15:17:20.631Z,6.00
2023-11-18T15:19:44.537Z,5.90
2023-11-18T15:22:08.454Z,5.80
2023-11-18T15:24:33.502Z,5.60
2023-11-18T15:26:57.364Z,5.60
2023-11-18T15:29:21.297Z,5.50
2023-11-18T15:31:49.944Z,5.50
2023-11-18T15:34:14.174Z,5.50
2023-11-18T15:36:44.526Z,5.50
2023-11-18T15:39:08.386Z,5.40
2023-11-18T15:41:32.327Z,5.40
2023-11-18T15:43:56.245Z,5.30
2023-11-18T15:46:20.060Z,5.40
2023-11-18T15:48:45.462Z,5.40
2023-11-18T15:51:09.381Z,5.30
2023-11-18T15:53:35.296Z,5.20
2023-11-18T15:55:59.369Z,5.20
2023-11-18T15:58:27.349Z,5.30
2023-11-18T16:00:53.945Z,5.20
2023-11-18T16:03:18.095Z,5.20
2023-11-18T16:05:43.419Z,5.20
2023-11-18T16:08:09.096Z,5.30
2023-11-18T16:10:33.355Z,5.30
2023-11-18T16:13:10.647Z,5.30
2023-11-18T16:15:37.928Z,5.30
2023-11-18T16:18:02.809Z,5.20
2023-11-18T16:20:28.139Z,5.30
2023-11-18T16:22:55.500Z,5.30
2023-11-18T16:25:21.836Z,5.30
2023-11-18T16:27:49.440Z,5.30
2023-11-18T16:30:14.318Z,5.30
2023-11-18T16:32:40.530Z,5.20
2023-11-18T16:35:05.282Z,5.20
2023-11-18T16:37:29.221Z,5.20
2023-11-18T16:39:55.016Z,5.20
2023-11-18T16:42:20.064Z,5.10
2023-11-18T16:44:43.966Z,5.00
2023-11-18T16:47:08.286Z,5.10
2023-11-18T16:49:32.185Z,5.10
2023-11-18T16:51:59.310Z,5.10
2023-11-18T16:54:35.677Z,5.10
2023-11-18T16:57:04.852Z,5.10
2023-11-18T16:59:28.725Z,5.00
2023-11-18T17:01:52.613Z,5.10
2023-11-18T17:04:17.453Z,5.10
2023-11-18T17:06:42.776Z,5.10
2023-11-18T17:09:09.845Z,5.10
2023-11-18T17:11:35.151Z,5.10
2023-11-18T17:14:00.841Z,5.10
2023-11-18T17:16:28.372Z,5.10
2023-11-18T17:18:52.514Z,5.10
2023-11-18T17:21:16.538Z,5.10
2023-11-18T17:23:44.865Z,5.20
2023-11-18T17:26:10.431Z,5.20
2023-11-18T17:28:34.213Z,5.20
2023-11-18T17:30:59.681Z,5.10
2023-11-18T17:33:23.596Z,5.20
2023-11-18T17:35:48.239Z,5.20
2023-11-18T17:38:12.234Z,5.20
2023-11-18T17:40:36.298Z,5.30
2023-11-18T17:43:00.130Z,5.30
2023-11-18T17:45:25.428Z,5.30
2023-11-18T17:47:54.430Z,5.30
2023-11-18T17:50:19.867Z,5.40
2023-11-18T17:52:45.684Z,5.30
2023-11-18T17:55:10.676Z,5.30
2023-11-18T17:57:34.588Z,5.30
2023-11-18T18:00:00.229Z,5.40
2023-11-18T18:02:24.147Z,5.30
2023-11-18T18:04:49.622Z,5.30
2023-11-18T18:07:13.617Z,5.40
2023-11-18T18:09:38.720Z,5.30
2023-11-18T18:12:02.607Z,5.30
2023-11-18T18:14:27.625Z,5.30
2023-11-18T18:16:51.713Z,5.20
2023-11-18T18:19:19.761Z,5.20
2023-11-18T18:21:48.190Z,5.20
2023-11-18T18:24:12.745Z,5.30
2023-11-18T18:26:36.801Z,5.40
2023-11-18T18:29:00.786Z,5.40
2023-11-18T18:31:24.610Z,5.50
2023-11-18T18:33:52.305Z,5.50
2023-11-18T18:36:16.194Z,5.50
2023-11-18T18:38:41.512Z,5.50
2023-11-18T18:41:06.616Z,5.60
2023-11-18T18:43:30.747Z,5.60
2023-11-18T18:45:54.721Z,5.70
2023-11-18T18:48:19.078Z,5.70
2023-11-18T18:50:43.085Z,5.80
2023-11-18T18:53:08.449Z,5.90
2023-11-18T18:55:33.909Z,5.90
2023-11-18T18:57:57.919Z,6.00
2023-11-18T19:00:22.167Z,6.00
2023-11-18T19:02:47.737Z,6.00
2023-11-18T19:05:14.448Z,6.00
2023-11-18T19:07:38.644Z,6.00
2023-11-18T19:10:03.049Z,6.00
2023-11-18T19:12:28.339Z,6.10
2023-11-18T19:14:52.763Z,6.10
2023-11-18T19:17:16.740Z,6.10
2023-11-18T19:19:41.108Z,6.10
2023-11-18T19:22:07.379Z,6.20
2023-11-18T19:24:32.071Z,6.20
2023-11-18T19:26:57.753Z,6.30
2023-11-18T19:29:26.261Z,6.30
2023-11-18T19:31:50.145Z,6.30
2023-11-18T19:34:14.110Z,6.20
2023-11-18T19:36:38.077Z,6.30
2023-11-18T19:39:04.594Z,6.30
2023-11-18T19:41:28.559Z,6.30
2023-11-18T19:43:52.402Z,6.30
2023-11-18T19:46:18.581Z,6.30
2023-11-18T19:48:42.464Z,6.30
2023-11-18T19:51:08.678Z,6.20
2023-11-18T19:53:32.724Z,6.30
2023-11-18T19:55:56.997Z,6.20
2023-11-18T19:58:25.867Z,6.20
2023-11-18T20:00:50.237Z,6.30
2023-11-18T20:03:16.513Z,6.30
2023-11-18T20:05:40.759Z,6.30
2023-11-18T20:08:07.065Z,6.30
2023-11-18T20:10:31.013Z,6.30
2023-11-18T20:12:54.933Z,6.30
2023-11-18T20:15:28.670Z,6.30
2023-11-18T20:17:52.755Z,6.20
2023-11-18T20:20:21.281Z,6.30
2023-11-18T20:22:55.968Z,6.20
2023-11-18T20:25:20.078Z,6.30
2023-11-18T20:27:43.934Z,6.30
2023-11-18T20:30:09.124Z,6.30
2023-11-18T20:32:34.268Z,6.30
2023-11-18T20:34:59.140Z,6.30
2023-11-18T20:37:24.440Z,6.30
2023-11-18T20:39:48.744Z,6.30
2023-11-18T20:42:13.431Z,6.30
2023-11-18T20:44:38.927Z,6.30
2023-11-18T20:47:03.025Z,6.30
2023-11-18T20:49:28.238Z,6.30
2023-11-18T20:51:52.898Z,6.30
2023-11-18T20:54:18.939Z,6.30
2023-11-18T20:56:43.438Z,6.20
2023-11-18T20:59:07.408Z,6.30
2023-11-18T21:01:31.537Z,6.20
2023-11-18T21:03:55.632Z,6.30
2023-11-18T21:06:22.741Z,6.30
2023-11-18T21:08:47.063Z,6.30
2023-11-18T21:11:12.426Z,6.30
2023-11-18T21:13:39.510Z,6.40
2023-11-18T21:16:03.579Z,6.30
2023-11-18T21:18:29.947Z,6.20
2023-11-18T21:20:53.748Z,6.10
2023-11-18T21:23:17.669Z,6.10
2023-11-18T21:25:41.471Z,6.00
2023-11-18T21:28:06.984Z,6.00
2023-11-18T21:30:30.907Z,6.10
2023-11-18T21:32:57.024Z,6.10
2023-11-18T21:35:21.352Z,6.10
2023-11-18T21:37:45.226Z,6.10
2023-11-18T21:40:12.954Z,6.10
2023-11-18T21:42:37.680Z,6.10
2023-11-18T21:45:03.449Z,6.20
2023-11-18T21:47:28.366Z,6.20
2023-11-18T21:49:52.714Z,6.10
2023-11-18T21:52:16.836Z,6.10
2023-11-18T21:54:40.685Z,6.10
2023-11-18T21:57:04.801Z,6.00
2023-11-18T21:59:29.313Z,6.10
2023-11-18T22:01:56.021Z,6.10
2023-11-18T22:04:20.199Z,6.10
2023-11-18T22:06:44.504Z,6.10
2023-11-18T22:09:10.264Z,6.10
2023-11-18T22:14:01.780Z,6.20
2023-11-18T22:16:29.035Z,6.20
2023-11-18T22:18:55.629Z,6.20
2023-11-18T22:21:21.098Z,6.20
2023-11-18T22:23:45.218Z,6.20
2023-11-18T22:26:09.223Z,6.20
2023-11-18T22:28:33.518Z,6.20
2023-11-18T22:30:57.366Z,6.20
2023-11-18T22:35:49.661Z,6.10
2023-11-18T22:38:14.472Z,6.00
2023-11-18T22:40:38.451Z,6.00
2023-11-18T22:43:02.345Z,6.00
2023-11-18T22:45:26.324Z,6.00
2023-11-18T22:47:52.207Z,6.00
2023-11-18T22:50:16.640Z,6.00
2023-11-18T22:52:42.029Z,5.90
2023-11-18T22:55:14.742Z,5.90
2023-11-18T22:57:39.547Z,5.80
2023-11-18T23:00:04.009Z,5.80
2023-11-18T23:02:32.761Z,5.80
2023-11-18T23:04:58.304Z,5.80
2023-11-18T23:07:22.364Z,5.80
2023-11-18T23:09:48.057Z,5.70
2023-11-18T23:12:11.932Z,5.70
2023-11-18T23:14:36.073Z,5.70
2023-11-18T23:17:08.229Z,5.70
2023-11-18T23:19:38.409Z,5.80
2023-11-18T23:22:09.329Z,5.80
2023-11-18T23:24:34.072Z,5.80
2023-11-18T23:26:59.262Z,5.80
2023-11-18T23:29:23.029Z,5.90
2023-11-18T23:31:46.950Z,5.90
2023-11-18T23:34:10.818Z,5.90
2023-11-18T23:36:34.769Z,5.90
2023-11-18T23:41:27.125Z,5.90
2023-11-18T23:43:52.377Z,5.80
2023-11-18T23:46:16.550Z,5.80
2023-11-18T23:48:40.786Z,5.70
2023-11-18T23:51:04.909Z,5.60
2023-11-18T23:53:28.716Z,5.50
2023-11-18T23:55:54.536Z,5.50
2023-11-18T23:58:20.176Z,5.50
